createdAt,value
2018-01-10T00:02:03.273Z,27.98
2018-01-10T00:04:32.274Z,29.20
2018-01-10T00:07:01.520Z,27.08
2018-01-10T00:09:30.510Z,29.08
2018-01-10T00:11:59.516Z,27.75
2018-01-10T00:14:28.489Z,32.33
2018-01-10T00:16:57.490Z,28.20
2018-01-10T00:19:26.466Z,26.20
2018-01-10T00:21:55.516Z,26.60
2018-01-10T00:24:24.525Z,25.05
2018-01-10T00:26:53.521Z,26.30
2018-01-10T00:29:22.552Z,28.75
2018-01-10T00:31:51.494Z,29.55
2018-01-10T00:34:20.492Z,34.58
2018-01-10T00:36:49.495Z,29.00
2018-01-10T00:39:18.484Z,28.83
2018-01-10T00:41:47.472Z,31.08
2018-01-10T00:44:16.497Z,33.70
2018-01-10T00:46:45.496Z,27.55
2018-01-10T00:49:14.515Z,25.60
2018-01-10T00:51:43.549Z,28.60
2018-01-10T00:54:12.481Z,27.95
2018-01-10T00:56:41.474Z,29.98
2018-01-10T00:59:10.441Z,29.23
2018-01-10T01:01:40.187Z,27.30
2018-01-10T01:04:09.962Z,26.87
2018-01-10T01:06:40.696Z,28.98
2018-01-10T01:09:09.774Z,30.02
2018-01-10T01:11:40.918Z,28.87
2018-01-10T01:14:10.113Z,28.00
2018-01-10T01:16:39.221Z,27.70
2018-01-10T01:19:08.988Z,26.35
2018-01-10T01:21:37.969Z,26.83
2018-01-10T01:24:10.199Z,29.20
2018-01-10T01:26:39.998Z,28.75
2018-01-10T01:29:09.736Z,27.48
2018-01-10T01:31:38.745Z,23.23
2018-01-10T01:34:07.867Z,25.90
2018-01-10T01:36:36.821Z,25.65
2018-01-10T01:39:06.261Z,28.58
2018-01-10T01:41:35.284Z,24.70
2018-01-10T01:44:04.289Z,24.95
2018-01-10T01:46:34.020Z,27.73
2018-01-10T01:49:02.989Z,25.90
2018-01-10T01:51:32.784Z,26.67
2018-01-10T01:54:01.780Z,23.90
2018-01-10T01:56:30.757Z,26.92
2018-01-10T01:58:59.769Z,27.65
2018-01-10T02:01:28.849Z,26.20
2018-01-10T02:03:57.920Z,25.60
2018-01-10T02:06:26.949Z,22.50
2018-01-10T02:08:55.953Z,27.08
2018-01-10T02:11:25.703Z,24.10
2018-01-10T02:13:54.644Z,21.98
2018-01-10T02:16:23.633Z,24.58
2018-01-10T02:18:52.595Z,26.48
2018-01-10T02:21:21.620Z,26.83
2018-01-10T02:23:50.613Z,24.52
2018-01-10T02:26:19.577Z,30.15
2018-01-10T02:28:48.919Z,32.47
2018-01-10T02:31:18.799Z,27.30
2018-01-10T02:33:47.867Z,30.80
2018-01-10T02:36:16.872Z,24.48
2018-01-10T02:38:45.859Z,29.55
2018-01-10T02:41:14.813Z,30.58
2018-01-10T02:43:44.549Z,31.58
2018-01-10T02:46:13.589Z,30.45
2018-01-10T02:50:01.947Z,31.77
2018-01-10T02:52:30.950Z,32.92
2018-01-10T02:55:00.730Z,32.63
2018-01-10T02:57:30.492Z,27.80
2018-01-10T03:00:00.271Z,29.92
2018-01-10T03:02:29.332Z,29.65
2018-01-10T03:04:58.384Z,27.83
2018-01-10T03:07:28.712Z,29.92
2018-01-10T03:09:58.445Z,35.15
2018-01-10T03:12:27.517Z,30.08
2018-01-10T03:14:57.236Z,25.65
2018-01-10T03:17:26.190Z,29.85
2018-01-10T03:19:55.156Z,29.35
2018-01-10T03:22:24.131Z,30.33
2018-01-10T03:24:53.076Z,32.47
2018-01-10T03:27:22.179Z,30.73
2018-01-10T03:29:52.138Z,28.83
2018-01-10T03:32:21.084Z,30.40
2018-01-10T03:34:50.782Z,31.65
2018-01-10T03:37:20.580Z,31.20
2018-01-10T03:39:49.616Z,27.80
2018-01-10T03:42:19.350Z,36.78
2018-01-10T03:44:48.325Z,31.45
2018-01-10T03:47:17.343Z,35.55
2018-01-10T03:49:46.346Z,31.33
2018-01-10T03:52:15.312Z,28.65
2018-01-10T03:54:45.054Z,34.92
2018-01-10T03:57:14.036Z,28.77
2018-01-10T03:59:43.001Z,27.33
2018-01-10T04:02:11.957Z,29.20
2018-01-10T04:04:40.926Z,28.48
2018-01-10T04:07:09.917Z,28.90
2018-01-10T04:09:38.988Z,31.83
2018-01-10T04:12:07.985Z,32.25
2018-01-10T04:14:36.977Z,29.55
2018-01-10T04:17:05.974Z,32.42
2018-01-10T04:19:34.916Z,29.48
2018-01-10T04:22:03.885Z,31.75
2018-01-10T04:24:32.855Z,29.45
2018-01-10T04:27:01.852Z,35.25
2018-01-10T04:29:30.824Z,30.40
2018-01-10T04:32:00.152Z,33.75
2018-01-10T04:34:29.176Z,29.77
2018-01-10T04:36:58.163Z,29.48
2018-01-10T04:39:27.133Z,33.83
2018-01-10T04:41:56.841Z,25.98
2018-01-10T04:44:25.810Z,26.48
2018-01-10T04:46:54.789Z,28.95
2018-01-10T04:49:23.782Z,25.40
2018-01-10T04:51:52.759Z,23.12
2018-01-10T04:54:22.514Z,19.02
2018-01-10T04:56:51.489Z,27.00
2018-01-10T04:59:20.436Z,33.13
2018-01-10T05:01:49.502Z,29.27
2018-01-10T05:04:18.494Z,27.92
2018-01-10T05:06:47.502Z,29.92
2018-01-10T05:09:16.548Z,29.73
2018-01-10T05:11:45.531Z,24.95
2018-01-10T05:14:15.373Z,24.42
2018-01-10T05:16:44.352Z,22.50
2018-01-10T05:19:13.377Z,24.65
2018-01-10T05:21:42.370Z,21.10
2018-01-10T05:24:15.533Z,23.60
2018-01-10T05:26:45.286Z,25.98
2018-01-10T05:29:14.268Z,22.75
2018-01-10T05:31:43.212Z,20.85
2018-01-10T05:34:12.220Z,26.02
2018-01-10T05:36:41.468Z,21.00
2018-01-10T05:39:10.513Z,19.10
2018-01-10T05:41:39.536Z,19.92
2018-01-10T05:44:08.570Z,20.30
2018-01-10T05:46:38.382Z,22.35
2018-01-10T05:49:08.190Z,26.52
2018-01-10T05:51:37.925Z,19.80
2018-01-10T05:54:06.924Z,24.45
2018-01-10T05:56:36.681Z,26.52
2018-01-10T05:59:06.007Z,24.05
2018-01-10T06:01:35.790Z,25.00
2018-01-10T06:04:07.730Z,22.25
2018-01-10T06:06:36.729Z,27.23
2018-01-10T06:09:06.510Z,25.92
2018-01-10T06:11:35.508Z,26.83
2018-01-10T06:14:04.561Z,25.40
2018-01-10T06:16:38.366Z,27.83
2018-01-10T06:19:08.476Z,26.42
2018-01-10T06:21:37.789Z,31.98
2018-01-10T06:24:07.807Z,29.05
2018-01-10T06:26:41.693Z,26.83
2018-01-10T06:29:10.885Z,27.75
2018-01-10T06:31:40.087Z,23.98
2018-01-10T06:34:10.714Z,25.83
2018-01-10T06:36:39.991Z,24.60
2018-01-10T06:39:09.013Z,22.05
2018-01-10T06:41:38.170Z,27.83
2018-01-10T06:44:07.370Z,30.75
2018-01-10T06:46:42.601Z,22.08
2018-01-10T06:49:12.503Z,25.80
2018-01-10T06:51:41.514Z,29.67
2018-01-10T06:54:11.317Z,22.92
2018-01-10T06:56:41.062Z,23.75
2018-01-10T06:59:10.065Z,24.20
2018-01-10T07:01:39.164Z,25.75
2018-01-10T07:04:09.054Z,25.02
2018-01-10T07:06:38.084Z,22.83
2018-01-10T07:09:07.100Z,24.48
2018-01-10T07:11:36.813Z,24.20
2018-01-10T07:14:06.600Z,24.98
2018-01-10T07:16:35.586Z,25.15
2018-01-10T07:19:04.580Z,23.70
2018-01-10T07:21:34.410Z,21.42
2018-01-10T07:24:04.159Z,22.00
2018-01-10T07:26:33.191Z,23.85
2018-01-10T07:29:02.898Z,22.10
2018-01-10T07:31:31.951Z,21.00
2018-01-10T07:34:01.074Z,23.35
2018-01-10T07:36:30.189Z,23.87
2018-01-10T07:39:02.265Z,21.60
2018-01-10T07:41:32.100Z,21.58
2018-01-10T07:44:01.167Z,24.27
2018-01-10T07:46:31.056Z,21.20
2018-01-10T07:49:00.821Z,21.23
2018-01-10T07:51:30.665Z,24.42
2018-01-10T07:53:59.820Z,26.20
2018-01-10T07:56:29.584Z,23.65
2018-01-10T07:58:58.608Z,20.50
2018-01-10T08:01:27.679Z,20.02
2018-01-10T08:03:57.453Z,21.45
2018-01-10T08:06:30.994Z,20.42
2018-01-10T08:12:31.825Z,17.62
2018-01-10T08:15:00.853Z,17.42
2018-01-10T08:17:30.728Z,19.05
2018-01-10T08:19:59.819Z,16.52
2018-01-10T08:22:28.859Z,13.52
2018-01-10T08:24:57.917Z,14.25
2018-01-10T08:27:27.064Z,12.70
2018-01-10T08:29:56.169Z,15.02
2018-01-10T08:32:27.795Z,14.65
2018-01-10T08:34:57.023Z,12.20
2018-01-10T08:37:27.009Z,15.32
2018-01-10T08:39:56.138Z,11.55
2018-01-10T08:42:25.236Z,12.00
2018-01-10T08:44:55.044Z,10.13
2018-01-10T08:47:24.188Z,11.70
2018-01-10T08:49:53.986Z,10.70
2018-01-10T08:52:23.278Z,11.63
2018-01-10T08:54:52.384Z,12.65
2018-01-10T08:57:22.251Z,13.82
2018-01-10T08:59:51.313Z,11.25
2018-01-10T09:02:20.395Z,10.18
2018-01-10T09:04:49.388Z,10.45
2018-01-10T09:07:18.486Z,10.55
2018-01-10T09:09:47.524Z,9.50
2018-01-10T09:12:17.365Z,9.73
2018-01-10T09:14:46.416Z,10.50
2018-01-10T09:17:16.286Z,11.00
2018-01-10T09:19:45.301Z,12.40
2018-01-10T09:22:14.359Z,10.30
2018-01-10T09:24:43.411Z,10.45
2018-01-10T09:27:12.481Z,10.63
2018-01-10T09:29:41.608Z,10.00
2018-01-10T09:32:10.637Z,10.05
2018-01-10T09:34:40.575Z,10.43
2018-01-10T09:37:10.408Z,9.85
2018-01-10T09:39:40.208Z,8.88
2018-01-10T09:42:09.291Z,10.10
2018-01-10T09:44:38.445Z,8.93
2018-01-10T09:47:08.252Z,7.97
2018-01-10T09:49:37.473Z,8.77
2018-01-10T09:52:07.381Z,9.57
2018-01-10T09:54:37.349Z,12.13
2018-01-10T09:57:06.417Z,10.30
2018-01-10T09:59:36.478Z,9.82
2018-01-10T10:02:06.314Z,8.52
2018-01-10T10:04:36.108Z,8.70
2018-01-10T10:07:09.528Z,9.18
2018-01-10T10:09:39.213Z,10.27
2018-01-10T10:12:08.285Z,9.82
2018-01-10T10:14:38.395Z,9.85
2018-01-10T10:17:07.438Z,8.23
2018-01-10T10:19:37.210Z,9.05
2018-01-10T10:22:06.408Z,9.70
2018-01-10T10:24:35.661Z,10.02
2018-01-10T10:27:04.740Z,10.55
2018-01-10T10:29:34.728Z,10.05
2018-01-10T10:32:16.972Z,10.05
2018-01-10T10:34:46.248Z,7.78
2018-01-10T10:37:15.538Z,10.52
2018-01-10T10:39:44.761Z,11.45
2018-01-10T10:42:13.813Z,10.70
2018-01-10T10:44:43.014Z,7.75
2018-01-10T10:47:12.062Z,8.98
2018-01-10T10:49:41.166Z,7.65
2018-01-10T10:52:10.263Z,9.02
2018-01-10T10:54:39.410Z,9.60
2018-01-10T10:57:08.732Z,9.98
2018-01-10T10:59:38.787Z,8.98
2018-01-10T11:02:08.609Z,8.35
2018-01-10T11:05:40.409Z,12.13
2018-01-10T11:08:11.184Z,9.30
2018-01-10T11:10:40.512Z,8.30
2018-01-10T11:13:10.742Z,10.10
2018-01-10T11:15:39.840Z,9.10
2018-01-10T11:18:08.943Z,8.45
2018-01-10T11:20:38.046Z,7.82
2018-01-10T11:23:08.035Z,8.13
2018-01-10T11:25:37.170Z,10.63
2018-01-10T11:28:16.192Z,7.30
2018-01-10T11:30:46.074Z,7.10
2018-01-10T11:33:15.058Z,10.63
2018-01-10T11:35:44.088Z,7.57
2018-01-10T11:38:13.216Z,6.05
2018-01-10T11:40:43.202Z,7.18
2018-01-10T11:43:12.402Z,7.50
2018-01-10T11:45:41.400Z,7.72
2018-01-10T11:48:11.246Z,7.20
2018-01-10T11:50:41.097Z,7.10
2018-01-10T11:53:10.991Z,7.72
2018-01-10T11:55:39.988Z,7.68
2018-01-10T11:58:10.052Z,7.37
2018-01-10T12:00:39.103Z,7.70
2018-01-10T12:03:08.105Z,8.68
2018-01-10T12:05:37.097Z,8.82
2018-01-10T12:08:06.234Z,7.95
2018-01-10T12:10:35.244Z,7.00
2018-01-10T12:13:05.106Z,9.30
2018-01-10T12:15:34.137Z,8.32
2018-01-10T12:18:03.205Z,8.43
2018-01-10T12:20:32.302Z,9.07
2018-01-10T12:23:02.245Z,11.20
2018-01-10T12:25:31.456Z,9.52
2018-01-10T12:28:02.135Z,9.65
2018-01-10T12:30:32.125Z,7.35
2018-01-10T12:33:02.023Z,11.48
2018-01-10T12:35:31.939Z,8.65
2018-01-10T12:38:01.855Z,6.60
2018-01-10T12:40:31.604Z,7.47
2018-01-10T12:43:01.483Z,8.15
2018-01-10T12:45:30.538Z,7.45
2018-01-10T12:47:59.638Z,11.60
2018-01-10T12:50:29.517Z,7.75
2018-01-10T12:52:58.557Z,9.07
2018-01-10T12:55:28.361Z,8.88
2018-01-10T12:57:57.468Z,9.48
2018-01-10T13:00:28.286Z,7.97
2018-01-10T13:02:57.312Z,8.10
2018-01-10T13:05:27.136Z,10.02
2018-01-10T13:07:56.194Z,8.20
2018-01-10T13:10:25.984Z,7.72
2018-01-10T13:12:55.074Z,9.80
2018-01-10T13:15:24.160Z,7.87
2018-01-10T13:17:53.961Z,10.05
2018-01-10T13:20:23.076Z,9.02
2018-01-10T13:22:52.157Z,9.75
2018-01-10T13:25:21.927Z,8.35
2018-01-10T13:27:51.782Z,7.20
2018-01-10T13:30:21.607Z,12.25
2018-01-10T13:32:50.869Z,8.20
2018-01-10T13:35:20.841Z,9.35
2018-01-10T13:37:49.950Z,7.72
2018-01-10T13:40:23.888Z,9.27
2018-01-10T13:42:53.661Z,8.52
2018-01-10T13:45:22.788Z,7.50
2018-01-10T13:47:52.125Z,8.25
2018-01-10T13:50:22.059Z,8.80
2018-01-10T13:52:51.257Z,8.45
2018-01-10T13:55:20.300Z,8.70
2018-01-10T13:57:49.696Z,8.10
2018-01-10T14:00:18.737Z,7.82
2018-01-10T14:02:47.784Z,9.05
2018-01-10T14:05:17.999Z,8.80
2018-01-10T14:07:48.025Z,7.25
2018-01-10T14:10:17.463Z,6.82
2018-01-10T14:12:47.880Z,6.72
2018-01-10T14:15:16.991Z,11.25
2018-01-10T14:17:46.936Z,7.12
2018-01-10T14:20:16.763Z,7.22
2018-01-10T14:22:46.566Z,6.85
2018-01-10T14:25:15.644Z,12.23
2018-01-10T14:27:45.405Z,6.10
2018-01-10T14:30:15.267Z,7.20
2018-01-10T14:32:44.350Z,7.20
2018-01-10T14:35:14.190Z,7.53
2018-01-10T14:37:43.249Z,5.50
2018-01-10T14:40:12.901Z,8.73
2018-01-10T14:42:42.785Z,6.07
2018-01-10T14:45:11.809Z,6.40
2018-01-10T14:47:41.744Z,7.72
2018-01-10T14:50:10.899Z,7.47
2018-01-10T14:52:41.297Z,7.50
2018-01-10T14:55:10.473Z,6.10
2018-01-10T14:57:44.148Z,7.70
2018-01-10T15:00:14.417Z,8.65
2018-01-10T15:02:43.579Z,6.20
2018-01-10T15:05:13.404Z,10.45
2018-01-10T15:07:43.330Z,5.40
2018-01-10T15:10:13.219Z,7.47
2018-01-10T15:12:43.216Z,8.15
2018-01-10T15:15:12.360Z,6.90
2018-01-10T15:17:46.190Z,9.88
2018-01-10T15:20:15.809Z,6.03
2018-01-10T15:22:45.190Z,9.65
2018-01-10T15:25:15.790Z,6.95
2018-01-10T15:27:45.166Z,6.50
2018-01-10T15:30:15.342Z,15.18
2018-01-10T15:32:44.931Z,11.75
2018-01-10T15:35:14.967Z,11.52
2018-01-10T15:37:48.428Z,10.40
2018-01-10T15:40:18.589Z,14.70
2018-01-10T15:42:47.723Z,17.55
2018-01-10T15:45:17.590Z,13.07
2018-01-10T15:47:47.422Z,8.85
2018-01-10T15:50:16.815Z,7.15
2018-01-10T15:52:46.671Z,16.35
2018-01-10T15:55:16.481Z,14.73
2018-01-10T15:57:46.598Z,11.50
2018-01-10T16:00:16.414Z,11.90
2018-01-10T16:02:46.482Z,13.02
2018-01-10T16:05:16.285Z,11.63
2018-01-10T16:07:45.883Z,13.00
2018-01-10T16:10:15.020Z,12.82
2018-01-10T16:12:44.285Z,10.30
2018-01-10T16:15:13.759Z,12.70
2018-01-10T16:17:43.743Z,15.45
2018-01-10T16:20:12.878Z,9.35
2018-01-10T16:22:42.321Z,13.65
2018-01-10T16:25:12.327Z,15.52
2018-01-10T16:27:41.710Z,12.27
2018-01-10T16:30:10.978Z,15.07
2018-01-10T16:32:41.445Z,10.20
2018-01-10T16:35:12.434Z,11.12
2018-01-10T16:37:41.635Z,7.05
2018-01-10T16:40:11.087Z,11.00
2018-01-10T16:42:40.488Z,11.18
2018-01-10T16:45:09.986Z,16.30
2018-01-10T16:47:39.871Z,21.23
2018-01-10T16:50:10.051Z,27.00
2018-01-10T16:52:40.953Z,29.02
2018-01-10T16:55:10.988Z,29.60
2018-01-10T16:57:41.081Z,11.23
2018-01-10T17:00:10.281Z,11.32
2018-01-10T17:02:40.653Z,7.78
2018-01-10T17:05:09.768Z,5.80
2018-01-10T17:07:38.780Z,11.80
2018-01-10T17:10:10.767Z,7.93
2018-01-10T17:12:41.137Z,7.47
2018-01-10T17:15:11.992Z,7.53
2018-01-10T17:17:42.130Z,9.95
2018-01-10T17:20:12.144Z,5.57
2018-01-10T17:22:42.815Z,14.35
2018-01-10T17:25:12.064Z,12.32
2018-01-10T17:27:41.135Z,15.55
2018-01-10T17:30:11.807Z,10.82
2018-01-10T17:32:42.224Z,5.22
2018-01-10T17:35:12.320Z,8.15
2018-01-10T17:37:42.206Z,5.25
2018-01-10T17:40:11.236Z,6.47
2018-01-10T17:42:41.673Z,9.07
2018-01-10T17:45:11.696Z,5.47
2018-01-10T17:47:41.950Z,6.65
2018-01-10T17:50:11.268Z,7.50
2018-01-10T17:52:40.397Z,9.80
2018-01-10T17:55:09.494Z,10.10
2018-01-10T17:57:38.546Z,11.60
2018-01-10T18:00:09.808Z,10.93
2018-01-10T18:02:40.455Z,10.23
2018-01-10T18:05:09.847Z,11.02
2018-01-10T18:07:42.382Z,11.80
2018-01-10T18:10:11.557Z,13.32
2018-01-10T18:12:45.888Z,34.67
2018-01-10T18:15:17.219Z,17.05
2018-01-10T18:17:51.181Z,8.73
2018-01-10T18:20:20.853Z,11.18
2018-01-10T18:22:50.757Z,9.27
2018-01-10T18:25:20.703Z,6.50
2018-01-10T18:27:50.339Z,7.35
2018-01-10T18:30:20.192Z,7.47
2018-01-10T18:32:51.021Z,6.90
2018-01-10T18:35:21.952Z,6.97
2018-01-10T18:37:53.043Z,8.88
2018-01-10T18:40:26.277Z,6.28
2018-01-10T18:42:57.457Z,7.10
2018-01-10T18:45:29.068Z,9.23
2018-01-10T18:48:01.097Z,5.68
2018-01-10T18:50:31.809Z,7.80
2018-01-10T18:53:03.945Z,12.57
2018-01-10T18:55:35.634Z,8.55
2018-01-10T18:58:07.394Z,7.32
2018-01-10T19:00:38.903Z,6.28
2018-01-10T19:03:08.975Z,12.35
2018-01-10T19:05:38.965Z,7.25
2018-01-10T19:08:10.741Z,6.15
2018-01-10T19:10:41.930Z,9.02
2018-01-10T19:13:11.849Z,7.10
2018-01-10T19:15:43.028Z,6.85
2018-01-10T19:18:14.072Z,8.07
2018-01-10T19:20:48.426Z,8.73
2018-01-10T19:23:24.611Z,10.52
2018-01-10T19:25:54.698Z,10.50
2018-01-10T19:28:24.926Z,10.93
2018-01-10T19:31:00.055Z,9.50
2018-01-10T19:33:33.060Z,8.82
2018-01-10T19:36:09.343Z,6.37
2018-01-10T19:38:42.089Z,11.77
2018-01-10T19:41:12.264Z,7.97
2018-01-10T19:43:42.520Z,10.73
2018-01-10T19:47:16.323Z,7.87
2018-01-10T19:49:46.872Z,6.03
2018-01-10T19:52:19.800Z,8.82
2018-01-10T19:54:50.734Z,8.82
2018-01-10T19:57:21.032Z,9.30
2018-01-10T19:59:50.666Z,9.82
2018-01-10T20:02:23.108Z,8.55
2018-01-10T20:04:52.364Z,7.75
2018-01-10T20:07:24.296Z,8.48
2018-01-10T20:09:54.827Z,7.40
2018-01-10T20:12:26.015Z,8.75
2018-01-10T20:14:59.009Z,14.35
2018-01-10T20:17:32.608Z,9.40
2018-01-10T20:21:09.436Z,9.07
2018-01-10T20:23:41.543Z,8.15
2018-01-10T20:26:13.111Z,9.73
2018-01-10T20:28:44.453Z,10.95
2018-01-10T20:31:13.558Z,8.52
2018-01-10T20:33:45.044Z,14.87
2018-01-10T20:36:18.103Z,10.50
2018-01-10T20:38:49.330Z,11.27
2018-01-10T20:41:21.412Z,12.05
2018-01-10T20:43:51.456Z,13.32
2018-01-10T20:46:21.290Z,12.10
2018-01-10T20:48:54.367Z,13.07
2018-01-10T20:51:39.392Z,14.05
2018-01-10T20:54:11.630Z,14.60
2018-01-10T20:56:43.389Z,12.80
2018-01-10T20:59:13.506Z,17.10
2018-01-10T21:01:45.701Z,16.33
2018-01-10T21:04:15.918Z,13.88
2018-01-10T21:06:46.886Z,15.98
2018-01-10T21:09:17.709Z,13.93
2018-01-10T21:11:47.464Z,11.65
2018-01-10T21:14:18.677Z,14.25
2018-01-10T21:16:49.224Z,18.08
2018-01-10T21:19:18.666Z,17.08
2018-01-10T21:21:49.286Z,15.27
2018-01-10T21:24:20.096Z,43.15
2018-01-10T21:26:50.951Z,15.45
2018-01-10T21:29:20.846Z,19.23
2018-01-10T21:31:51.717Z,20.00
2018-01-10T21:34:22.659Z,29.20
2018-01-10T21:36:55.005Z,30.50
2018-01-10T21:39:25.276Z,13.98
2018-01-10T21:41:55.763Z,14.15
2018-01-10T21:44:27.131Z,16.08
2018-01-10T21:47:00.280Z,14.18
2018-01-10T21:49:30.857Z,16.17
2018-01-10T21:52:00.910Z,12.45
2018-01-10T21:54:30.929Z,12.65
2018-01-10T21:57:02.934Z,12.82
2018-01-10T21:59:32.868Z,12.45
2018-01-10T22:02:03.082Z,15.02
2018-01-10T22:04:32.903Z,14.93
2018-01-10T22:07:02.702Z,14.93
2018-01-10T22:09:31.772Z,11.50
2018-01-10T22:12:01.338Z,13.48
2018-01-10T22:14:31.026Z,12.25
2018-01-10T22:17:02.062Z,11.43
2018-01-10T22:19:37.755Z,13.35
2018-01-10T22:22:08.018Z,13.50
2018-01-10T22:24:37.373Z,15.02
2018-01-10T22:27:06.653Z,15.85
2018-01-10T22:29:36.581Z,12.20
2018-01-10T22:32:06.170Z,9.32
2018-01-10T22:34:36.312Z,11.27
2018-01-10T22:37:07.469Z,12.40
2018-01-10T22:39:36.734Z,13.15
2018-01-10T22:42:06.696Z,11.90
2018-01-10T22:44:35.712Z,13.50
2018-01-10T22:47:04.816Z,12.80
2018-01-10T22:49:33.858Z,12.82
2018-01-10T22:52:02.907Z,10.00
2018-01-10T22:54:31.913Z,11.43
2018-01-10T22:57:01.753Z,13.27
2018-01-10T22:59:30.809Z,13.52
2018-01-10T23:01:59.884Z,11.88
2018-01-10T23:04:28.892Z,17.98
2018-01-10T23:06:57.861Z,14.43
2018-01-10T23:09:26.870Z,14.52
2018-01-10T23:11:55.934Z,14.30
2018-01-10T23:14:24.941Z,12.93
2018-01-10T23:16:53.891Z,17.23
2018-01-10T23:19:22.987Z,13.38
2018-01-10T23:21:52.004Z,12.27
2018-01-10T23:24:21.004Z,11.00
2018-01-10T23:26:50.017Z,10.65
2018-01-10T23:29:19.029Z,10.10
2018-01-10T23:31:48.211Z,9.75
2018-01-10T23:34:17.183Z,10.93
2018-01-10T23:36:46.166Z,7.75
2018-01-10T23:39:15.205Z,10.20
2018-01-10T23:41:44.193Z,7.00
2018-01-10T23:44:13.212Z,5.80
2018-01-10T23:46:42.925Z,11.68
2018-01-10T23:49:12.665Z,5.50
2018-01-10T23:51:41.659Z,5.25
2018-01-10T23:54:10.619Z,7.70
2018-01-10T23:56:40.305Z,5.68
2018-01-10T23:59:10.387Z,5.55
